Hokuetsu Century — 9VNT4 — position and weather

sailwx.info

Track history (hours):
 
Tides and Currents Weather Stations Pressure Air Temp Water Temp Dewpoint Dewpoint Depression Visibility Wind Speed Wind Dir Waves Ship Positions

Hokuetsu Century

Last reported at 2018-Apr-10 00:39 UTC. Time now 2018-Apr-23 13:44 UTC.
Position N 41°20' E 140°16'.
Warning: this ship's position is 13 days out of date.

Length 210 m; draft 11.4 m.

Type: Cargo ship. MMSI: 565431000.

Date/timePositionNaut miles runAvg speedWind from/ knotsBaromVisibWave heightAir tempDewpointWater temp
2018-Apr-10 00:39N 41°20' E 140°16'2 9.4
2018-Apr-10 00:28N 41°21' E 140°17'510.4
2018-Apr-10 00:00N 41°24' E 140°23'510.3
2018-Apr-09 23:30N 41°27' E 140°28'5 9.3
2018-Apr-09 23:00N 41°30' E 140°33'5 9.1
2018-Apr-09 22:30N 41°32' E 140°38'510.7
2018-Apr-09 22:00N 41°35' E 140°44'510.1
2018-Apr-09 21:30N 41°38' E 140°50'5 9.5
2018-Apr-09 21:00N 41°40' E 140°56'510.6
2018-Apr-09 20:30N 41°40' E 141°03'611.9
2018-Apr-09 20:00N 41°40' E 141°11'611.9
2018-Apr-09 19:30N 41°40' E 141°19'510.8
2018-Apr-09 19:00N 41°39' E 141°26'5 9.5
2018-Apr-09 18:30N 41°38' E 141°32'5 9.2
2018-Apr-09 17:59N 41°38' E 141°38'5 8.6
2018-Apr-09 17:28N 41°35' E 141°43'  
Track history (hours):
 
Tides and Currents Weather Stations Pressure Air Temp Water Temp Dewpoint Dewpoint Depression Visibility Wind Speed Wind Dir Waves Ship Positions

Hokuetsu Century

Last reported at 2018-Apr-10 00:39 UTC. Time now 2018-Apr-23 13:44 UTC.
Position N 41°20' E 140°16'.
Warning: this ship's position is 13 days out of date.

Length 210 m; draft 11.4 m.

Type: Cargo ship. MMSI: 565431000.

Date/timePositionNaut miles runAvg speedWind from/ knotsBaromVisibWave heightAir tempDewpointWater temp
2018-Apr-10 00:39N 41°20' E 140°16'2 9.4
2018-Apr-10 00:28N 41°21' E 140°17'510.4
2018-Apr-10 00:00N 41°24' E 140°23'510.3
2018-Apr-09 23:30N 41°27' E 140°28'5 9.3
2018-Apr-09 23:00N 41°30' E 140°33'5 9.1
2018-Apr-09 22:30N 41°32' E 140°38'510.7
2018-Apr-09 22:00N 41°35' E 140°44'510.1
2018-Apr-09 21:30N 41°38' E 140°50'5 9.5
2018-Apr-09 21:00N 41°40' E 140°56'510.6
2018-Apr-09 20:30N 41°40' E 141°03'611.9
2018-Apr-09 20:00N 41°40' E 141°11'611.9
2018-Apr-09 19:30N 41°40' E 141°19'510.8
2018-Apr-09 19:00N 41°39' E 141°26'5 9.5
2018-Apr-09 18:30N 41°38' E 141°32'5 9.2
2018-Apr-09 17:59N 41°38' E 141°38'5 8.6
2018-Apr-09 17:28N 41°35' E 141°43'  

Dump ship's entire track history